Time;durP1;ratioP1;P1;durP2;ratioP2;P2;SDS_P1;SDS_P2;PMS_P1;PMS_P2;Temp;Humidity;BMP_temperature;BMP_pressure;BME280_temperature;BME280_humidity;BME280_pressure;Samples;Min_cycle;Max_cycle;Signal;HPM_P1;HPM_P2
2024/04/19 00:01:04;;;;;;;0.73;0.73;;;4.80;99.90;;;;;;5240584;27;20234;-68
2024/04/19 00:03:30;;;;;;;1.20;1.10;;;4.90;99.90;;;;;;5237759;27;20629;-69
2024/04/19 00:05:56;;;;;;;1.43;0.77;;;4.80;99.90;;;;;;5230605;27;20234;-69
2024/04/19 00:08:22;;;;;;;1.27;0.83;;;4.90;99.90;;;;;;5240497;27;20254;-69
2024/04/19 00:10:48;;;;;;;2.23;0.97;;;4.90;99.90;;;;;;5240346;27;20313;-68
2024/04/19 00:13:13;;;;;;;3.63;1.07;;;4.90;99.90;;;;;;5241056;27;20370;-69
2024/04/19 00:15:42;;;;;;;6.03;1.47;;;4.90;99.90;;;;;;5240661;27;20345;-69
2024/04/19 00:18:08;;;;;;;1.87;1.00;;;4.90;99.90;;;;;;5240639;27;20238;-69
2024/04/19 00:20:33;;;;;;;1.00;0.83;;;4.90;99.90;;;;;;5266001;27;20249;-68
2024/04/19 00:22:59;;;;;;;0.67;0.67;;;4.90;99.90;;;;;;5240713;27;20249;-68
2024/04/19 00:25:24;;;;;;;1.40;1.20;;;4.90;99.90;;;;;;5240524;27;20253;-68
2024/04/19 00:27:50;;;;;;;0.80;0.70;;;5.00;99.90;;;;;;5240580;27;20245;-68
2024/04/19 00:30:15;;;;;;;5.20;0.90;;;5.00;99.90;;;;;;5238745;27;20241;-69
2024/04/19 00:32:41;;;;;;;1.27;0.80;;;5.00;99.90;;;;;;5240252;27;20872;-68
2024/04/19 00:35:07;;;;;;;1.30;1.17;;;5.00;99.90;;;;;;5240525;27;20841;-68
2024/04/19 00:37:33;;;;;;;1.17;0.70;;;4.90;99.90;;;;;;5240224;27;20306;-68
2024/04/19 00:39:59;;;;;;;1.73;1.27;;;5.00;99.90;;;;;;5239845;27;20293;-69
2024/04/19 00:42:25;;;;;;;1.60;1.30;;;5.00;99.90;;;;;;5240021;27;20237;-68
2024/04/19 00:44:51;;;;;;;1.17;0.83;;;5.00;99.90;;;;;;5240502;27;20659;-68
2024/04/19 00:47:17;;;;;;;2.40;0.97;;;5.00;99.90;;;;;;5240148;27;20271;-68
2024/04/19 00:49:43;;;;;;;4.80;1.00;;;5.00;99.90;;;;;;5239308;27;20238;-69
2024/04/19 00:52:11;;;;;;;1.20;0.80;;;5.00;99.90;;;;;;5228823;27;20239;-68
2024/04/19 00:54:37;;;;;;;1.57;0.97;;;5.10;99.90;;;;;;5238464;27;20238;-69
2024/04/19 00:57:03;;;;;;;1.60;1.03;;;5.10;99.90;;;;;;5240255;27;20717;-69
2024/04/19 00:59:30;;;;;;;4.57;2.10;;;5.10;99.90;;;;;;5226153;27;20243;-69
2024/04/19 01:01:55;;;;;;;1.37;0.77;;;5.10;99.90;;;;;;5239495;27;20237;-68
2024/04/19 01:04:22;;;;;;;0.73;0.63;;;5.10;99.90;;;;;;5240082;27;20366;-69
2024/04/19 01:06:48;;;;;;;1.67;1.37;;;5.10;99.90;;;;;;5240119;27;20633;-68
2024/04/19 01:09:15;;;;;;;0.87;0.83;;;5.10;99.90;;;;;;5239870;27;20280;-69
2024/04/19 01:11:41;;;;;;;1.53;1.27;;;5.10;99.90;;;;;;5239359;27;20742;-69
2024/04/19 01:14:07;;;;;;;2.63;1.93;;;5.10;99.90;;;;;;5240077;27;20234;-68
2024/04/19 01:16:35;;;;;;;4.87;0.93;;;5.20;99.90;;;;;;5239381;27;20246;-68
2024/04/19 01:19:02;;;;;;;2.17;1.23;;;5.10;99.90;;;;;;5239990;27;20246;-68
2024/04/19 01:21:28;;;;;;;5.60;1.73;;;5.10;99.90;;;;;;5239010;27;20364;-68
2024/04/19 01:24:02;;;;;;;1.90;0.90;;;5.20;99.90;;;;;;5240142;27;20842;-69
2024/04/19 01:26:27;;;;;;;1.93;1.00;;;5.20;99.90;;;;;;5239626;27;20238;-68
2024/04/19 01:28:53;;;;;;;1.43;1.03;;;5.20;99.90;;;;;;5239608;27;20698;-68
2024/04/19 01:31:18;;;;;;;4.80;1.63;;;5.20;99.90;;;;;;5225467;27;20701;-68
2024/04/19 01:33:44;;;;;;;2.77;1.43;;;5.20;99.90;;;;;;5239624;27;20370;-68
2024/04/19 01:36:09;;;;;;;1.70;1.20;;;5.20;99.90;;;;;;5239717;27;20288;-68
2024/04/19 01:38:35;;;;;;;1.23;1.03;;;5.30;99.90;;;;;;5239665;27;20317;-68
2024/04/19 01:41:00;;;;;;;2.33;1.40;;;5.30;99.90;;;;;;5239276;27;20234;-68
2024/04/19 01:43:26;;;;;;;0.90;0.70;;;5.30;99.90;;;;;;5225930;27;20242;-68
2024/04/19 01:45:51;;;;;;;0.40;0.40;;;5.30;99.90;;;;;;5239598;27;20245;-68
2024/04/19 01:48:17;;;;;;;1.50;0.97;;;5.30;99.90;;;;;;5265479;27;20272;-69
2024/04/19 01:50:42;;;;;;;1.57;0.90;;;5.40;99.90;;;;;;5224643;27;20242;-68
2024/04/19 01:53:08;;;;;;;1.17;0.80;;;5.40;99.90;;;;;;5226109;27;20234;-67
2024/04/19 01:55:34;;;;;;;1.57;1.27;;;5.50;99.90;;;;;;5242599;27;20238;-68
2024/04/19 01:57:59;;;;;;;0.90;0.80;;;5.60;99.90;;;;;;5242693;27;20833;-68
2024/04/19 02:00:25;;;;;;;1.37;1.23;;;5.60;99.90;;;;;;5241777;27;20803;-67
2024/04/19 02:02:50;;;;;;;1.00;0.73;;;5.70;99.90;;;;;;5242403;27;20236;-67
2024/04/19 02:05:16;;;;;;;1.27;1.17;;;5.70;99.90;;;;;;5242613;27;20237;-67
2024/04/19 02:07:41;;;;;;;1.67;1.30;;;5.80;99.90;;;;;;5242103;27;20233;-67
2024/04/19 02:10:08;;;;;;;1.13;1.00;;;5.80;99.90;;;;;;5241840;27;20246;-67
2024/04/19 02:12:34;;;;;;;2.20;1.40;;;5.80;99.90;;;;;;5242282;27;20286;-67
2024/04/19 02:14:59;;;;;;;1.30;1.13;;;5.90;99.90;;;;;;5242530;27;20589;-66
2024/04/19 02:17:25;;;;;;;2.43;1.40;;;5.90;99.90;;;;;;5241926;27;20264;-67
2024/04/19 02:19:51;;;;;;;1.30;1.03;;;5.90;99.90;;;;;;5241587;27;20238;-67
2024/04/19 02:22:16;;;;;;;2.57;1.47;;;5.90;99.90;;;;;;5242333;27;20344;-67
2024/04/19 02:24:42;;;;;;;2.50;1.33;;;5.90;99.90;;;;;;5242011;27;20617;-66
2024/04/19 02:30:51;;;;;;;4.03;1.17;;;5.90;99.90;;;;;;5242393;27;20242;-67
2024/04/19 02:32:37;;;;;;;7.67;2.23;;;5.90;99.90;;;;;;5228106;27;20281;-67
2024/04/19 02:35:03;;;;;;;2.03;1.30;;;5.90;99.90;;;;;;5242167;27;20269;-67
2024/04/19 02:37:28;;;;;;;2.73;1.50;;;5.90;99.90;;;;;;5242142;27;20237;-67
2024/04/19 02:39:54;;;;;;;2.60;1.13;;;5.90;99.90;;;;;;5241331;27;20237;-66
2024/04/19 02:42:19;;;;;;;2.13;1.40;;;5.90;99.90;;;;;;5241779;27;20237;-66
2024/04/19 02:44:46;;;;;;;1.53;1.30;;;5.90;99.90;;;;;;5228443;27;20817;-66
2024/04/19 02:47:12;;;;;;;2.43;1.67;;;5.80;99.90;;;;;;5242043;27;20989;-66
2024/04/19 02:49:38;;;;;;;1.60;1.27;;;5.80;99.90;;;;;;5241475;27;20253;-67
2024/04/19 02:52:04;;;;;;;1.13;0.90;;;5.80;99.90;;;;;;5241307;27;20233;-66
2024/04/19 02:54:30;;;;;;;1.63;1.30;;;5.80;99.90;;;;;;5241634;27;20245;-66
2024/04/19 02:56:55;;;;;;;2.57;1.70;;;5.80;99.90;;;;;;5233673;27;20290;-67
2024/04/19 02:59:21;;;;;;;1.87;1.47;;;5.80;99.90;;;;;;5235579;27;20249;-67
2024/04/19 03:01:47;;;;;;;8.93;1.47;;;5.80;99.90;;;;;;5228062;27;20241;-67
2024/04/19 03:04:12;;;;;;;1.23;0.83;;;5.80;99.90;;;;;;5242092;27;20237;-66
2024/04/19 03:06:38;;;;;;;1.03;0.83;;;5.80;99.90;;;;;;5241494;27;20791;-67
2024/04/19 03:09:03;;;;;;;1.63;1.00;;;5.70;99.90;;;;;;5241577;27;20596;-67
2024/04/19 03:11:29;;;;;;;0.63;0.60;;;5.70;99.90;;;;;;5238938;27;20246;-67
2024/04/19 03:13:54;;;;;;;0.77;0.60;;;5.70;99.90;;;;;;5216476;27;20233;-67
2024/04/19 03:16:20;;;;;;;1.13;0.90;;;5.70;99.90;;;;;;5241445;27;20268;-67
2024/04/19 03:18:45;;;;;;;0.83;0.50;;;5.70;99.90;;;;;;5241084;27;20237;-67
2024/04/19 03:21:11;;;;;;;0.60;0.47;;;5.80;99.90;;;;;;5240955;27;20238;-66
2024/04/19 03:23:36;;;;;;;0.60;0.30;;;5.80;99.90;;;;;;5241319;27;20280;-67
2024/04/19 03:26:02;;;;;;;0.50;0.50;;;5.90;99.90;;;;;;5241365;27;20238;-67
2024/04/19 03:28:28;;;;;;;0.43;0.40;;;5.90;99.90;;;;;;5241264;27;20234;-67
2024/04/19 03:30:54;;;;;;;0.40;0.40;;;5.90;99.90;;;;;;5240997;27;20718;-68
2024/04/19 03:33:19;;;;;;;0.70;0.60;;;5.90;99.90;;;;;;5241217;27;20280;-67
2024/04/19 03:35:45;;;;;;;1.13;0.50;;;5.90;99.90;;;;;;5241364;27;20777;-68
2024/04/19 03:38:14;;;;;;;0.53;0.47;;;5.90;99.90;;;;;;5229958;27;20235;-68
2024/04/19 03:40:40;;;;;;;0.40;0.30;;;5.90;99.90;;;;;;5239252;27;20233;-67
2024/04/19 03:43:05;;;;;;;0.37;0.37;;;5.80;99.90;;;;;;5241762;27;20718;-67
2024/04/19 03:45:40;;;;;;;0.20;0.20;;;5.70;99.90;;;;;;5240801;27;20280;-67
2024/04/19 03:48:06;;;;;;;2.90;1.07;;;5.70;99.90;;;;;;5227218;27;20737;-67
2024/04/19 03:50:32;;;;;;;0.60;0.40;;;5.60;99.90;;;;;;5240358;27;20234;-68
2024/04/19 03:52:57;;;;;;;0.37;0.30;;;5.50;99.90;;;;;;5255211;27;20582;-67
2024/04/19 03:55:23;;;;;;;0.53;0.50;;;5.50;99.90;;;;;;5240908;27;20238;-67
2024/04/19 03:57:49;;;;;;;0.63;0.47;;;5.40;99.90;;;;;;5241032;27;20682;-67
2024/04/19 04:00:14;;;;;;;1.33;0.50;;;5.40;99.90;;;;;;5226667;27;20233;-67
2024/04/19 04:02:40;;;;;;;0.60;0.33;;;5.40;99.90;;;;;;5236395;27;20370;-67
2024/04/19 04:05:05;;;;;;;0.40;0.30;;;5.40;99.90;;;;;;5218251;27;20234;-66
2024/04/19 04:07:31;;;;;;;0.87;0.40;;;5.40;99.90;;;;;;5224108;27;20712;-66
2024/04/19 04:09:57;;;;;;;2.00;0.87;;;5.40;99.90;;;;;;5220995;27;20322;-66
2024/04/19 04:12:22;;;;;;;0.60;0.47;;;5.30;99.90;;;;;;5233776;27;20237;-66
2024/04/19 04:14:48;;;;;;;0.60;0.47;;;5.30;99.90;;;;;;5234567;27;20311;-66
2024/04/19 04:17:13;;;;;;;0.60;0.60;;;5.40;99.90;;;;;;5232756;27;20280;-66
2024/04/19 04:19:39;;;;;;;0.93;0.50;;;5.30;99.90;;;;;;5239722;27;20301;-65
2024/04/19 04:22:05;;;;;;;0.37;0.37;;;5.30;99.90;;;;;;5240890;27;20831;-65
2024/04/19 04:24:30;;;;;;;0.20;0.20;;;5.30;99.90;;;;;;5240472;27;20711;-66
2024/04/19 04:26:56;;;;;;;0.37;0.30;;;5.30;99.90;;;;;;5240967;27;20730;-66
2024/04/19 04:29:21;;;;;;;0.77;0.60;;;5.30;99.90;;;;;;5240378;27;20284;-65
2024/04/19 04:31:47;;;;;;;0.67;0.53;;;5.30;99.90;;;;;;5239834;27;20714;-65
2024/04/19 04:34:12;;;;;;;0.30;0.30;;;5.20;99.90;;;;;;5240686;27;20234;-65
2024/04/19 04:36:38;;;;;;;0.30;0.30;;;5.30;99.90;;;;;;5239982;27;20293;-66
2024/04/19 04:39:05;;;;;;;0.43;0.33;;;5.20;99.90;;;;;;5228569;27;20266;-65
2024/04/19 04:41:30;;;;;;;0.50;0.50;;;5.20;99.90;;;;;;5221291;27;20845;-65
2024/04/19 04:43:56;;;;;;;0.27;0.20;;;5.20;99.90;;;;;;5239586;27;20246;-66
2024/04/19 04:46:22;;;;;;;0.47;0.43;;;5.20;99.90;;;;;;5238886;27;20253;-67
2024/04/19 04:48:47;;;;;;;0.57;0.50;;;5.20;99.90;;;;;;5238906;27;20230;-66
2024/04/19 04:51:13;;;;;;;0.47;0.40;;;5.10;99.90;;;;;;5239012;27;20281;-66
2024/04/19 04:53:38;;;;;;;0.40;0.40;;;5.10;99.90;;;;;;5237256;27;20280;-65
2024/04/19 04:56:04;;;;;;;0.50;0.37;;;5.10;99.90;;;;;;5239062;27;20276;-66
2024/04/19 04:58:30;;;;;;;0.63;0.63;;;5.20;99.90;;;;;;5224985;27;20340;-66
2024/04/19 05:00:56;;;;;;;1.70;0.40;;;5.20;99.90;;;;;;5224728;27;20237;-66
2024/04/19 05:03:22;;;;;;;0.50;0.30;;;5.20;99.90;;;;;;5239072;27;20242;-66
2024/04/19 05:05:47;;;;;;;0.83;0.60;;;5.30;99.90;;;;;;5225588;27;20340;-66
2024/04/19 05:08:13;;;;;;;3.10;0.67;;;5.30;99.90;;;;;;5264773;27;20245;-66
2024/04/19 05:10:38;;;;;;;1.10;0.43;;;5.30;99.90;;;;;;5263860;27;20253;-66
2024/04/19 05:13:04;;;;;;;1.27;0.57;;;5.30;99.90;;;;;;5239130;27;20233;-66
2024/04/19 05:15:29;;;;;;;0.57;0.50;;;5.30;99.90;;;;;;5238537;27;20824;-66
2024/04/19 05:17:55;;;;;;;0.40;0.40;;;5.40;99.90;;;;;;5238783;27;20309;-66
2024/04/19 05:20:21;;;;;;;0.67;0.50;;;5.40;99.90;;;;;;5237896;27;20356;-66
2024/04/19 05:22:47;;;;;;;0.67;0.30;;;5.40;99.90;;;;;;5225354;27;20238;-66
2024/04/19 05:25:13;;;;;;;0.50;0.30;;;5.40;99.90;;;;;;5239005;27;20691;-66
2024/04/19 05:27:38;;;;;;;0.30;0.30;;;5.30;99.90;;;;;;5237616;27;20799;-66
2024/04/19 05:30:05;;;;;;;0.47;0.40;;;5.30;99.90;;;;;;5237623;27;20241;-65
2024/04/19 05:32:30;;;;;;;0.30;0.20;;;5.30;99.90;;;;;;5238244;27;20246;-66
2024/04/19 05:34:56;;;;;;;0.20;0.20;;;5.30;99.90;;;;;;5238711;27;20230;-65
2024/04/19 05:37:21;;;;;;;0.20;0.20;;;5.40;99.90;;;;;;5238611;27;20245;-65
2024/04/19 05:39:47;;;;;;;0.20;0.20;;;5.40;99.90;;;;;;5224257;27;20741;-65
2024/04/19 05:42:13;;;;;;;0.40;0.30;;;5.40;99.90;;;;;;5225584;27;20411;-66
2024/04/19 05:44:38;;;;;;;1.07;0.63;;;5.30;99.90;;;;;;5238529;27;20234;-66
2024/04/19 05:47:05;;;;;;;0.20;0.20;;;5.30;99.90;;;;;;5238544;27;20238;-66
2024/04/19 05:49:31;;;;;;;0.53;0.20;;;5.40;99.90;;;;;;5236197;27;20269;-66
2024/04/19 05:51:57;;;;;;;0.20;0.20;;;5.40;99.90;;;;;;5226279;27;20722;-66
2024/04/19 05:54:23;;;;;;;0.20;0.20;;;5.30;99.90;;;;;;5224266;27;20369;-66
2024/04/19 05:56:48;;;;;;;0.20;0.20;;;5.20;99.90;;;;;;5238424;27;21078;-66
2024/04/19 05:59:14;;;;;;;0.50;0.50;;;5.30;99.90;;;;;;5226274;27;20265;-66
2024/04/19 06:01:39;;;;;;;0.33;0.33;;;5.30;99.90;;;;;;5235051;27;20230;-66
2024/04/19 06:04:06;;;;;;;0.37;0.20;;;5.20;99.90;;;;;;5238211;27;20676;-66
2024/04/19 06:06:32;;;;;;;0.47;0.40;;;5.30;99.90;;;;;;5223912;27;20292;-66
2024/04/19 06:08:57;;;;;;;0.50;0.30;;;5.30;99.90;;;;;;5238015;27;20794;-66
2024/04/19 06:11:23;;;;;;;0.47;0.23;;;5.20;99.90;;;;;;5237142;27;20715;-66
2024/04/19 06:13:48;;;;;;;0.27;0.20;;;5.20;99.90;;;;;;5231846;27;20270;-66
2024/04/19 06:16:14;;;;;;;0.57;0.30;;;5.20;99.90;;;;;;5216926;27;20237;-66
2024/04/19 06:18:40;;;;;;;0.40;0.40;;;5.20;99.90;;;;;;5228108;27;20662;-67
2024/04/19 06:21:05;;;;;;;0.97;0.60;;;5.20;99.90;;;;;;5234356;27;20401;-64
2024/04/19 06:23:31;;;;;;;0.20;0.20;;;5.30;99.90;;;;;;5237746;27;20238;-66
2024/04/19 06:26:03;;;;;;;0.63;0.40;;;5.40;99.90;;;;;;5237759;27;20238;-67
2024/04/19 06:28:30;;;;;;;0.30;0.30;;;5.40;99.90;;;;;;5237544;27;20238;-67
2024/04/19 06:31:05;;;;;;;0.27;0.27;;;5.40;99.90;;;;;;5237266;27;20284;-67
2024/04/19 06:33:30;;;;;;;0.57;0.57;;;5.50;99.90;;;;;;5223557;27;20234;-64
2024/04/19 06:35:57;;;;;;;0.50;0.33;;;5.40;99.90;;;;;;5236091;27;20280;-65
2024/04/19 06:38:23;;;;;;;0.37;0.37;;;5.50;99.90;;;;;;5234245;27;20388;-65
2024/04/19 06:40:49;;;;;;;0.30;0.30;;;5.50;99.90;;;;;;5239794;27;20309;-66
2024/04/19 06:43:16;;;;;;;0.67;0.57;;;5.60;99.90;;;;;;5227325;27;20239;-65
2024/04/19 06:45:41;;;;;;;1.43;0.50;;;5.60;99.90;;;;;;5229272;27;20337;-64
2024/04/19 06:48:07;;;;;;;0.30;0.30;;;5.60;99.90;;;;;;5224880;27;20579;-65
2024/04/19 06:50:33;;;;;;;0.20;0.20;;;5.60;99.90;;;;;;5236651;27;20284;-65
2024/04/19 06:52:58;;;;;;;0.20;0.20;;;5.60;99.90;;;;;;5240996;27;20233;-65
2024/04/19 06:55:24;;;;;;;0.20;0.20;;;5.60;99.90;;;;;;5267021;27;20246;-64
2024/04/19 06:57:49;;;;;;;0.50;0.40;;;5.50;99.90;;;;;;5232633;27;20369;-64
2024/04/19 07:00:15;;;;;;;0.43;0.30;;;5.50;99.90;;;;;;5232904;27;20860;-65
2024/04/19 07:02:41;;;;;;;0.20;0.20;;;5.60;99.90;;;;;;5240366;27;20641;-66
2024/04/19 07:05:06;;;;;;;0.20;0.20;;;5.60;99.90;;;;;;5240592;27;20734;-65
2024/04/19 07:07:32;;;;;;;0.30;0.30;;;5.70;99.90;;;;;;5238583;27;20301;-65
2024/04/19 07:09:57;;;;;;;0.20;0.20;;;5.70;99.90;;;;;;5214645;27;20254;-65
2024/04/19 07:12:23;;;;;;;0.10;0.10;;;5.80;99.90;;;;;;5240474;27;20314;-65
2024/04/19 07:14:49;;;;;;;0.10;0.10;;;5.90;99.90;;;;;;5234618;27;20683;-65
2024/04/19 07:17:14;;;;;;;0.33;0.30;;;5.80;99.90;;;;;;5219169;27;20238;-65
2024/04/19 07:19:40;;;;;;;0.20;0.20;;;5.80;99.90;;;;;;5235264;27;20768;-64
2024/04/19 07:22:06;;;;;;;0.30;0.30;;;5.80;99.90;;;;;;5229336;27;20695;-65
2024/04/19 07:24:31;;;;;;;0.47;0.40;;;5.90;99.90;;;;;;5239068;27;20284;-65
2024/04/19 07:26:57;;;;;;;0.10;0.10;;;5.80;99.90;;;;;;5238048;27;20352;-65
2024/04/19 07:29:22;;;;;;;0.20;0.20;;;5.80;99.90;;;;;;5239509;27;20282;-65
2024/04/19 07:31:48;;;;;;;0.20;0.20;;;5.90;99.90;;;;;;5211342;27;20352;-65
2024/04/19 07:34:13;;;;;;;0.37;0.37;;;5.90;99.90;;;;;;5240707;27;20278;-65
2024/04/19 07:36:39;;;;;;;0.20;0.20;;;5.90;99.90;;;;;;5226690;27;20231;-65
2024/04/19 07:39:04;;;;;;;1.07;0.50;;;5.90;99.90;;;;;;5240012;27;21050;-65
2024/04/19 07:41:30;;;;;;;1.13;0.70;;;5.90;99.90;;;;;;5225451;27;20234;-65
2024/04/19 07:43:56;;;;;;;0.43;0.40;;;5.90;99.90;;;;;;5240511;27;20230;-65
2024/04/19 07:46:21;;;;;;;0.37;0.20;;;5.90;99.90;;;;;;5224049;27;20242;-65
2024/04/19 07:48:47;;;;;;;0.77;0.77;;;5.90;99.90;;;;;;5239570;27;20278;-65
2024/04/19 07:51:12;;;;;;;2.93;1.50;;;6.00;99.90;;;;;;5238508;27;20348;-65
2024/04/19 07:53:38;;;;;;;0.27;0.20;;;6.00;99.90;;;;;;5239880;27;20859;-65
2024/04/19 07:56:04;;;;;;;0.50;0.30;;;6.00;99.90;;;;;;5239813;27;20748;-64
2024/04/19 07:58:29;;;;;;;0.30;0.30;;;6.10;99.90;;;;;;5238769;27;20679;-65
2024/04/19 08:00:55;;;;;;;0.20;0.20;;;6.10;99.90;;;;;;5239355;27;20971;-65
2024/04/19 08:03:21;;;;;;;0.70;0.53;;;6.10;99.90;;;;;;5240152;27;20817;-65
2024/04/19 08:05:46;;;;;;;0.20;0.20;;;6.10;99.90;;;;;;5239629;27;20292;-65
2024/04/19 08:08:13;;;;;;;0.80;0.67;;;6.10;99.90;;;;;;5240188;27;20242;-64
2024/04/19 08:10:38;;;;;;;0.37;0.30;;;6.20;99.90;;;;;;5235479;27;20284;-65
2024/04/19 08:13:06;;;;;;;0.30;0.30;;;6.30;99.90;;;;;;5229650;27;20233;-65
2024/04/19 08:15:32;;;;;;;0.20;0.20;;;6.40;99.90;;;;;;5236767;27;20299;-65
2024/04/19 08:17:57;;;;;;;1.17;0.70;;;6.40;99.90;;;;;;5226002;27;20230;-65
2024/04/19 08:20:23;;;;;;;0.53;0.53;;;6.50;99.90;;;;;;5217971;27;20842;-65
2024/04/19 08:22:49;;;;;;;0.23;0.23;;;6.60;99.90;;;;;;5239097;27;20581;-65
2024/04/19 08:25:14;;;;;;;0.80;0.80;;;6.60;99.90;;;;;;5228627;27;20611;-65
2024/04/19 08:27:40;;;;;;;0.27;0.27;;;6.60;99.90;;;;;;5209787;27;20731;-65
2024/04/19 08:30:06;;;;;;;0.27;0.20;;;6.70;99.90;;;;;;5225126;27;20241;-64
2024/04/19 08:32:32;;;;;;;0.37;0.30;;;6.70;99.90;;;;;;5216097;27;20323;-65
2024/04/19 08:34:58;;;;;;;0.40;0.40;;;6.50;99.90;;;;;;5231832;27;20318;-66
2024/04/19 08:37:24;;;;;;;0.20;0.20;;;6.50;99.90;;;;;;5242790;27;20576;-65
2024/04/19 08:39:54;;;;;;;1.60;0.60;;;6.60;99.90;;;;;;5244095;27;20297;-66
2024/04/19 08:42:20;;;;;;;0.57;0.57;;;6.50;99.90;;;;;;5239920;27;20287;-65
2024/04/19 08:44:48;;;;;;;0.50;0.40;;;6.60;99.90;;;;;;5241347;27;20674;-66
2024/04/19 08:47:16;;;;;;;0.63;0.37;;;6.70;99.90;;;;;;5247109;27;20233;-65
2024/04/19 08:49:46;;;;;;;2.60;1.27;;;6.80;99.90;;;;;;5236617;27;20293;-66
2024/04/19 08:52:14;;;;;;;1.03;0.67;;;6.90;99.90;;;;;;5239398;27;20245;-66
2024/04/19 08:54:42;;;;;;;1.43;0.80;;;7.10;99.90;;;;;;5225298;27;20239;-65
2024/04/19 08:57:08;;;;;;;1.00;0.77;;;7.10;99.90;;;;;;5239797;27;20373;-65
2024/04/19 08:59:34;;;;;;;1.13;0.70;;;7.20;99.90;;;;;;5238643;27;20238;-65
2024/04/19 09:02:00;;;;;;;0.20;0.20;;;7.10;99.90;;;;;;5230335;27;20277;-66
2024/04/19 09:04:26;;;;;;;0.60;0.33;;;7.10;99.90;;;;;;5232512;27;20343;-64
2024/04/19 09:06:52;;;;;;;0.53;0.43;;;7.00;99.90;;;;;;5224901;27;20245;-66
2024/04/19 09:09:18;;;;;;;0.20;0.20;;;7.10;99.90;;;;;;5265359;27;20347;-66
2024/04/19 09:11:48;;;;;;;0.30;0.30;;;7.00;99.90;;;;;;5224753;27;20280;-66
2024/04/19 09:14:14;;;;;;;0.30;0.30;;;7.10;99.90;;;;;;5225260;27;20754;-66
2024/04/19 09:16:41;;;;;;;0.33;0.30;;;7.10;99.90;;;;;;5225194;27;20231;-65
2024/04/19 09:19:07;;;;;;;0.23;0.20;;;7.20;99.90;;;;;;5239036;27;20419;-66
2024/04/19 09:21:33;;;;;;;0.20;0.20;;;7.30;99.90;;;;;;5237878;27;20288;-65
2024/04/19 09:23:59;;;;;;;0.20;0.20;;;7.20;99.90;;;;;;5239270;27;20722;-65
2024/04/19 09:26:25;;;;;;;0.40;0.37;;;7.40;99.90;;;;;;5238785;27;20292;-66
2024/04/19 09:28:51;;;;;;;0.40;0.20;;;7.50;99.90;;;;;;5238754;27;20237;-65
2024/04/19 09:31:17;;;;;;;0.20;0.20;;;7.70;99.90;;;;;;5238080;27;20895;-65
2024/04/19 09:33:43;;;;;;;1.10;0.80;;;7.70;99.90;;;;;;5224657;27;20231;-65
2024/04/19 09:36:09;;;;;;;1.83;1.03;;;7.90;99.90;;;;;;5238592;27;20241;-65
2024/04/19 09:38:37;;;;;;;0.77;0.53;;;7.90;99.90;;;;;;5237889;27;20241;-66
2024/04/19 09:41:05;;;;;;;0.70;0.60;;;7.90;99.90;;;;;;5236101;27;20229;-65
2024/04/19 09:43:36;;;;;;;0.70;0.30;;;7.90;99.90;;;;;;5238154;27;20889;-65
2024/04/19 09:46:03;;;;;;;0.33;0.33;;;8.00;99.90;;;;;;5236734;27;20234;-65
2024/04/19 09:48:35;;;;;;;0.30;0.30;;;8.10;99.90;;;;;;5238264;27;20380;-65
2024/04/19 09:51:05;;;;;;;0.60;0.40;;;8.20;99.90;;;;;;5264152;27;20324;-65
2024/04/19 09:53:33;;;;;;;0.17;0.17;;;8.20;99.90;;;;;;5224275;27;20239;-66
2024/04/19 09:56:39;;;;;;;0.30;0.30;;;8.20;99.90;;;;;;5238276;27;20578;-65
2024/04/19 09:59:06;;;;;;;0.20;0.20;;;8.20;99.90;;;;;;5238156;27;20772;-65
2024/04/19 10:01:32;;;;;;;0.40;0.20;;;8.10;99.90;;;;;;5236838;27;20257;-65
2024/04/19 10:03:59;;;;;;;0.20;0.20;;;8.10;99.90;;;;;;5214609;27;20350;-65
2024/04/19 10:06:26;;;;;;;0.30;0.30;;;8.00;99.90;;;;;;5223673;27;20648;-65
2024/04/19 10:08:54;;;;;;;0.20;0.20;;;8.00;99.90;;;;;;5224409;27;20773;-66
2024/04/19 10:11:21;;;;;;;0.30;0.30;;;8.00;99.90;;;;;;5220339;27;20318;-65
2024/04/19 10:13:46;;;;;;;0.20;0.20;;;8.00;99.90;;;;;;5237095;27;20277;-66
2024/04/19 10:16:12;;;;;;;0.50;0.30;;;8.00;99.90;;;;;;5230581;27;20235;-65
2024/04/19 10:18:37;;;;;;;0.20;0.20;;;8.00;99.90;;;;;;5235670;27;20285;-64
2024/04/19 10:21:04;;;;;;;0.40;0.40;;;8.00;99.90;;;;;;5229618;27;20376;-64
2024/04/19 10:23:30;;;;;;;0.40;0.37;;;8.10;99.90;;;;;;5227250;27;20329;-65
2024/04/19 10:25:59;;;;;;;0.17;0.13;;;8.10;99.90;;;;;;5241614;27;20821;-65
2024/04/19 10:28:28;;;;;;;0.20;0.20;;;8.20;99.90;;;;;;5213298;27;20251;-65
2024/04/19 10:30:54;;;;;;;0.37;0.27;;;8.20;99.90;;;;;;5240520;27;20237;-65
2024/04/19 10:33:20;;;;;;;0.40;0.30;;;8.20;99.90;;;;;;5241460;27;20276;-64
2024/04/19 10:35:46;;;;;;;0.43;0.30;;;8.10;99.90;;;;;;5240963;27;20237;-65
2024/04/19 10:38:13;;;;;;;0.33;0.30;;;8.10;99.90;;;;;;5239173;27;20305;-65
2024/04/19 10:40:38;;;;;;;0.20;0.20;;;8.20;99.90;;;;;;5232251;27;20615;-65
2024/04/19 10:43:05;;;;;;;0.20;0.20;;;8.20;99.90;;;;;;5224676;27;20281;-65
2024/04/19 10:45:31;;;;;;;0.27;0.20;;;8.30;99.90;;;;;;5236144;27;20283;-65
2024/04/19 10:47:58;;;;;;;0.40;0.20;;;8.40;99.90;;;;;;5234245;27;20237;-65
2024/04/19 10:50:23;;;;;;;2.47;0.80;;;8.40;99.90;;;;;;5240204;27;20287;-65
2024/04/19 10:52:52;;;;;;;0.40;0.40;;;8.60;99.90;;;;;;5229222;27;20297;-65
2024/04/19 10:55:18;;;;;;;0.50;0.40;;;8.80;99.90;;;;;;5240822;27;20234;-66
2024/04/19 10:57:44;;;;;;;0.40;0.40;;;8.90;99.90;;;;;;5226940;27;20230;-65
2024/04/19 11:00:10;;;;;;;0.40;0.40;;;9.00;99.90;;;;;;5240135;27;20683;-64
2024/04/19 11:02:37;;;;;;;0.40;0.40;;;9.20;99.90;;;;;;5240311;27;20635;-65
2024/04/19 11:05:04;;;;;;;0.53;0.40;;;9.20;99.90;;;;;;5240737;27;20233;-65
2024/04/19 11:07:30;;;;;;;0.37;0.30;;;9.10;99.90;;;;;;5240313;27;20390;-64
2024/04/19 11:09:56;;;;;;;0.30;0.30;;;8.90;99.90;;;;;;5239732;27;20735;-64
2024/04/19 11:12:23;;;;;;;0.23;0.23;;;8.80;99.90;;;;;;5240810;27;20284;-65
2024/04/19 11:14:49;;;;;;;0.30;0.20;;;8.70;99.90;;;;;;5240278;27;20238;-66
2024/04/19 11:17:15;;;;;;;0.80;0.40;;;8.60;99.90;;;;;;5225366;27;20749;-65
2024/04/19 11:19:40;;;;;;;0.93;0.43;;;8.50;99.90;;;;;;5234131;27;20237;-65
2024/04/19 11:22:06;;;;;;;0.40;0.40;;;8.40;99.90;;;;;;5228438;27;20238;-64
2024/04/19 11:24:34;;;;;;;0.13;0.13;;;8.30;99.90;;;;;;5240261;27;20676;-64
2024/04/19 11:27:00;;;;;;;0.20;0.20;;;8.20;99.90;;;;;;5237226;27;20722;-65
2024/04/19 11:29:26;;;;;;;0.30;0.23;;;8.10;99.90;;;;;;5239979;27;20253;-64
2024/04/19 11:31:51;;;;;;;0.20;0.20;;;8.10;99.90;;;;;;5228391;27;20585;-65
2024/04/19 11:34:17;;;;;;;0.83;0.30;;;8.20;99.90;;;;;;5220831;27;20288;-65
2024/04/19 11:36:44;;;;;;;1.33;0.60;;;8.30;99.90;;;;;;5223724;27;20326;-65
2024/04/19 11:39:11;;;;;;;0.20;0.20;;;8.40;99.90;;;;;;5222467;27;20238;-64
2024/04/19 11:41:37;;;;;;;0.27;0.27;;;8.40;99.90;;;;;;5219190;27;20234;-64
2024/04/19 11:44:04;;;;;;;0.30;0.30;;;8.50;99.90;;;;;;5235477;27;20234;-65
2024/04/19 11:46:33;;;;;;;0.33;0.20;;;8.60;99.90;;;;;;5223250;27;20234;-66
2024/04/19 11:49:03;;;;;;;0.20;0.20;;;8.70;99.90;;;;;;5224645;27;20741;-65
2024/04/19 11:51:29;;;;;;;0.20;0.20;;;8.80;99.90;;;;;;5224498;27;20239;-64
2024/04/19 11:53:55;;;;;;;0.30;0.30;;;8.90;99.90;;;;;;5223108;27;20302;-65
2024/04/19 11:56:20;;;;;;;0.30;0.20;;;8.80;99.90;;;;;;5224272;27;20623;-65
2024/04/19 11:58:52;;;;;;;0.70;0.40;;;8.60;99.90;;;;;;5226091;27;20288;-65
2024/04/19 12:01:21;;;;;;;0.43;0.30;;;8.50;99.90;;;;;;5222297;27;20247;-64
2024/04/19 12:03:47;;;;;;;0.10;0.10;;;8.30;99.90;;;;;;5224747;27;20800;-65
2024/04/19 12:06:13;;;;;;;0.47;0.40;;;8.20;99.90;;;;;;5223166;27;20246;-64
2024/04/19 12:08:39;;;;;;;0.47;0.40;;;8.20;99.90;;;;;;5225645;27;20246;-64
2024/04/19 12:11:04;;;;;;;0.13;0.13;;;8.10;99.90;;;;;;5223208;27;20351;-65
2024/04/19 12:13:30;;;;;;;3.90;0.60;;;8.00;99.90;;;;;;5251024;27;20238;-63
2024/04/19 12:15:55;;;;;;;0.30;0.30;;;7.90;99.90;;;;;;5224762;27;20238;-65
2024/04/19 12:18:21;;;;;;;0.30;0.30;;;7.90;99.90;;;;;;5229534;27;20326;-64
2024/04/19 12:20:48;;;;;;;0.47;0.40;;;7.90;99.90;;;;;;5238780;27;20249;-65
2024/04/19 12:23:13;;;;;;;0.50;0.50;;;7.90;99.90;;;;;;5228978;27;20378;-64
2024/04/19 12:25:39;;;;;;;0.37;0.37;;;7.90;99.90;;;;;;5236382;27;20242;-65
2024/04/19 12:28:05;;;;;;;0.70;0.30;;;7.90;99.90;;;;;;5239770;27;20238;-66
2024/04/19 12:30:30;;;;;;;0.40;0.40;;;8.00;99.90;;;;;;5238736;27;20284;-64
2024/04/19 12:32:56;;;;;;;0.47;0.47;;;8.00;99.90;;;;;;5239812;27;20279;-65
2024/04/19 12:35:23;;;;;;;0.57;0.33;;;8.00;99.90;;;;;;5239672;27;20265;-64
2024/04/19 12:37:49;;;;;;;0.20;0.20;;;7.90;99.90;;;;;;5223228;27;20356;-66
2024/04/19 12:40:14;;;;;;;0.30;0.30;;;8.00;99.90;;;;;;5238738;27;20245;-65
2024/04/19 12:42:40;;;;;;;0.50;0.43;;;8.00;99.90;;;;;;5236264;27;20245;-65
2024/04/19 12:45:06;;;;;;;0.20;0.20;;;7.90;99.90;;;;;;5228934;27;20261;-65
2024/04/19 12:47:31;;;;;;;0.40;0.20;;;7.90;99.90;;;;;;5239368;27;20672;-66
2024/04/19 12:49:57;;;;;;;0.23;0.23;;;7.80;99.90;;;;;;5238728;27;20245;-66
2024/04/19 12:52:23;;;;;;;0.47;0.40;;;7.80;99.90;;;;;;5239404;27;20284;-67
2024/04/19 12:54:48;;;;;;;0.30;0.30;;;7.90;99.90;;;;;;5239099;27;20309;-67